Terminal Aerodrome Forecast
Issued by NWS Cleveland, OH

Home | Current Version | Previous Version | Graphics & Text | Print | Product List | Glossary Off
Versions: 1 2 3 4 5 6 7 8 9 10 11 12 13 14 15 16 17 18 19 20 21

000
FTUS41 KCLE 260500
TAFYNG
TAF
KYNG 260531Z 2606/2706 03006KT P6SM OVC100
     FM261500 05009KT 3SM -SN OVC025
     FM261700 03010KT 1 1/2SM -SN BR OVC015
     FM262200 35010KT 3SM -SN BR OVC015
     FM270300 31008KT P6SM OVC018=

USA.gov is the U.S. government's official web portal to all federal, state and local government web resources and services.